Time;durP1;ratioP1;P1;durP2;ratioP2;P2;SDS_P1;SDS_P2;PMS_P1;PMS_P2;Temp;Humidity;BMP_temperature;BMP_pressure;BME280_temperature;BME280_humidity;BME280_pressure;Samples;Min_cycle;Max_cycle;Signal;HPM_P1;HPM_P2
2023/06/05 00:01:58;;;;;;;;;6.00;4.25;;;;;;;;5070596;28;29364;-55
2023/06/05 00:04:23;;;;;;;;;4.25;4.25;;;;;;;;5069897;28;29351;-59
2023/06/05 00:06:49;;;;;;;;;5.00;4.00;;;;;;;;5070972;28;29640;-57
2023/06/05 00:09:14;;;;;;;;;3.25;3.25;;;;;;;;5070476;28;29163;-57
2023/06/05 00:11:40;;;;;;;;;4.25;3.75;;;;;;;;5071007;28;29218;-57
2023/06/05 00:14:08;;;;;;;;;4.75;3.50;;;;;;;;5069144;28;29331;-56
2023/06/05 00:16:33;;;;;;;;;7.60;6.60;;;;;;;;5070458;28;29523;-56
2023/06/05 00:18:58;;;;;;;;;4.00;4.00;;;;;;;;5070549;28;29364;-62
2023/06/05 00:21:25;;;;;;;;;3.00;3.00;;;;;;;;5086173;28;29483;-57
2023/06/05 00:23:50;;;;;;;;;4.80;4.60;;;;;;;;5070923;28;28932;-55
2023/06/05 00:26:15;;;;;;;;;5.75;4.25;;;;;;;;5070272;28;29471;-55
2023/06/05 00:28:40;;;;;;;;;6.25;6.25;;;;;;;;5070492;28;29338;-56
2023/06/05 00:31:06;;;;;;;;;4.00;4.00;;;;;;;;5070690;28;29661;-56
2023/06/05 00:33:31;;;;;;;;;4.75;4.50;;;;;;;;5038339;28;29647;-58
2023/06/05 00:35:57;;;;;;;;;5.75;4.25;;;;;;;;5085990;28;29558;-56
2023/06/05 00:38:22;;;;;;;;;4.50;4.50;;;;;;;;5085944;28;28950;-55
2023/06/05 00:40:47;;;;;;;;;4.00;4.00;;;;;;;;5070461;28;29268;-57
2023/06/05 00:43:12;;;;;;;;;5.75;4.25;;;;;;;;5070160;28;29004;-56
2023/06/05 00:45:38;;;;;;;;;4.75;3.75;;;;;;;;5070507;28;29757;-55
2023/06/05 00:48:03;;;;;;;;;4.25;4.25;;;;;;;;5070581;28;29242;-53
2023/06/05 00:50:32;;;;;;;;;5.00;4.00;;;;;;;;5085640;28;29329;-56
2023/06/05 00:52:57;;;;;;;;;3.40;3.00;;;;;;;;5070126;28;29479;-56
2023/06/05 00:55:22;;;;;;;;;5.50;5.50;;;;;;;;5070001;28;29747;-57
2023/06/05 00:57:47;;;;;;;;;8.50;7.00;;;;;;;;5070260;28;29002;-56
2023/06/05 01:00:13;;;;;;;;;6.00;4.25;;;;;;;;5070202;28;29287;-55
2023/06/05 01:02:39;;;;;;;;;5.00;5.00;;;;;;;;5070250;28;29191;-56
2023/06/05 01:05:05;;;;;;;;;6.60;5.20;;;;;;;;5069024;28;31422;-56
2023/06/05 01:07:32;;;;;;;;;6.20;6.00;;;;;;;;5069640;28;29241;-57
2023/06/05 01:09:58;;;;;;;;;4.00;4.00;;;;;;;;5070506;28;29208;-57
2023/06/05 01:12:26;;;;;;;;;5.75;4.00;;;;;;;;5070552;28;29570;-56
2023/06/05 01:14:51;;;;;;;;;5.00;5.00;;;;;;;;5069827;28;29210;-55
2023/06/05 01:17:18;;;;;;;;;6.00;6.00;;;;;;;;5085907;28;29409;-56
2023/06/05 01:19:44;;;;;;;;;9.00;5.00;;;;;;;;5069942;28;29602;-54
2023/06/05 01:22:09;;;;;;;;;10.50;9.00;;;;;;;;5068363;28;29170;-56
2023/06/05 01:24:35;;;;;;;;;9.25;6.25;;;;;;;;5070067;28;29317;-56
2023/06/05 01:27:09;;;;;;;;;6.00;6.00;;;;;;;;5069944;28;29368;-57
2023/06/05 01:29:41;;;;;;;;;4.40;4.40;;;;;;;;5070177;28;29320;-55
2023/06/05 01:32:07;;;;;;;;;6.20;6.20;;;;;;;;5069783;28;29180;-58
2023/06/05 01:34:33;;;;;;;;;8.40;5.80;;;;;;;;5070097;28;30335;-57
2023/06/05 01:36:59;;;;;;;;;6.40;6.40;;;;;;;;5069938;28;28848;-56
2023/06/05 01:39:24;;;;;;;;;7.00;5.75;;;;;;;;5068560;28;29546;-56
2023/06/05 01:41:49;;;;;;;;;4.25;4.00;;;;;;;;5069503;28;29513;-56
2023/06/05 01:44:15;;;;;;;;;6.00;5.00;;;;;;;;5069460;28;29630;-58
2023/06/05 01:46:41;;;;;;;;;8.25;7.00;;;;;;;;5069378;28;29234;-54
2023/06/05 01:49:06;;;;;;;;;6.00;6.00;;;;;;;;5067788;28;29049;-54
2023/06/05 01:51:31;;;;;;;;;7.00;5.25;;;;;;;;5069452;28;29146;-56
2023/06/05 01:53:57;;;;;;;;;5.50;5.50;;;;;;;;5069135;28;29037;-57
2023/06/05 01:56:23;;;;;;;;;4.80;4.80;;;;;;;;5069473;28;29114;-56
2023/06/05 01:58:49;;;;;;;;;7.00;6.00;;;;;;;;5067504;28;29275;-56
2023/06/05 02:01:16;;;;;;;;;5.50;5.00;;;;;;;;5067760;28;29569;-56
2023/06/05 02:03:47;;;;;;;;;6.00;6.00;;;;;;;;5038715;28;29649;-55
2023/06/05 02:06:12;;;;;;;;;6.80;4.80;;;;;;;;5069196;28;29319;-54
2023/06/05 02:08:38;;;;;;;;;5.75;4.75;;;;;;;;5069324;28;29242;-57
2023/06/05 02:11:09;;;;;;;;;6.25;6.25;;;;;;;;5069249;28;29273;-57
2023/06/05 02:13:37;;;;;;;;;6.40;6.00;;;;;;;;5069123;28;29399;-56
2023/06/05 02:16:02;;;;;;;;;5.20;5.00;;;;;;;;5084238;28;29625;-55
2023/06/05 02:18:29;;;;;;;;;5.50;5.50;;;;;;;;5071498;28;29031;-57
2023/06/05 02:20:57;;;;;;;;;4.80;4.00;;;;;;;;5072497;28;29261;-58
2023/06/05 02:23:23;;;;;;;;;4.60;4.60;;;;;;;;5087813;28;29706;-53
2023/06/05 02:25:48;;;;;;;;;6.00;4.75;;;;;;;;5072196;28;29467;-55
2023/06/05 02:28:13;;;;;;;;;6.00;4.75;;;;;;;;5088369;28;29558;-54
2023/06/05 02:30:38;;;;;;;;;6.00;6.00;;;;;;;;5072837;28;29093;-57
2023/06/05 02:33:04;;;;;;;;;4.00;4.00;;;;;;;;5072300;28;29446;-57
2023/06/05 02:35:29;;;;;;;;;5.00;5.00;;;;;;;;5072260;28;29230;-56
2023/06/05 02:37:56;;;;;;;;;5.75;4.00;;;;;;;;5072268;28;29184;-54
2023/06/05 02:40:21;;;;;;;;;5.40;4.20;;;;;;;;5070872;28;29442;-54
2023/06/05 02:42:46;;;;;;;;;6.00;4.75;;;;;;;;5088010;28;29439;-56
2023/06/05 02:45:12;;;;;;;;;7.00;5.75;;;;;;;;5072504;28;29672;-56
2023/06/05 02:47:37;;;;;;;;;8.00;6.00;;;;;;;;5071112;28;28749;-57
2023/06/05 02:50:02;;;;;;;;;5.75;4.75;;;;;;;;5072869;28;29018;-58
2023/06/05 02:52:28;;;;;;;;;7.00;5.25;;;;;;;;5071984;28;29272;-56
2023/06/05 02:54:53;;;;;;;;;7.75;6.25;;;;;;;;5072644;28;28639;-56
2023/06/05 02:57:18;;;;;;;;;6.25;4.75;;;;;;;;5072186;28;29301;-56
2023/06/05 02:59:44;;;;;;;;;8.25;5.75;;;;;;;;5070849;28;29112;-56
2023/06/05 03:02:09;;;;;;;;;6.50;6.25;;;;;;;;5072073;28;29897;-56
2023/06/05 03:04:35;;;;;;;;;6.00;5.00;;;;;;;;5072108;28;29042;-55
2023/06/05 03:07:04;;;;;;;;;7.75;7.50;;;;;;;;5072586;28;29145;-56
2023/06/05 03:09:30;;;;;;;;;6.40;5.20;;;;;;;;5087453;28;29728;-57
2023/06/05 03:11:55;;;;;;;;;6.60;6.60;;;;;;;;5071987;28;29324;-55
2023/06/05 03:14:21;;;;;;;;;10.00;8.50;;;;;;;;5071964;28;29234;-54
2023/06/05 03:16:46;;;;;;;;;6.00;6.00;;;;;;;;5071777;28;29429;-55
2023/06/05 03:19:11;;;;;;;;;6.75;5.00;;;;;;;;5072075;28;29299;-56
2023/06/05 03:21:37;;;;;;;;;6.75;6.00;;;;;;;;5071555;28;29963;-57
2023/06/05 03:24:04;;;;;;;;;10.40;6.80;;;;;;;;5070310;28;30650;-56
2023/06/05 03:26:29;;;;;;;;;5.40;5.40;;;;;;;;5071562;28;28654;-56
2023/06/05 03:28:54;;;;;;;;;6.00;6.00;;;;;;;;5071265;28;29378;-55
2023/06/05 03:31:19;;;;;;;;;8.75;6.50;;;;;;;;5072002;28;30380;-57
2023/06/05 03:33:45;;;;;;;;;6.00;5.00;;;;;;;;5071442;28;29144;-57
2023/06/05 03:36:10;;;;;;;;;8.25;4.50;;;;;;;;5071798;28;29088;-56
2023/06/05 03:38:35;;;;;;;;;7.00;6.75;;;;;;;;5071645;28;29597;-57
2023/06/05 03:41:00;;;;;;;;;7.25;5.75;;;;;;;;5071710;28;29244;-56
2023/06/05 03:43:26;;;;;;;;;6.00;6.00;;;;;;;;5070777;28;29539;-52
2023/06/05 03:45:51;;;;;;;;;10.50;6.25;;;;;;;;5071286;28;29288;-56
2023/06/05 03:48:19;;;;;;;;;6.75;6.75;;;;;;;;5071241;28;29088;-56
2023/06/05 03:50:46;;;;;;;;;9.00;8.60;;;;;;;;5070738;28;29282;-56
2023/06/05 03:53:13;;;;;;;;;8.80;6.40;;;;;;;;5070891;28;28980;-54
2023/06/05 03:55:41;;;;;;;;;7.80;7.60;;;;;;;;5071124;28;29581;-57
2023/06/05 03:58:13;;;;;;;;;7.60;7.40;;;;;;;;5070721;28;29827;-57
2023/06/05 04:00:38;;;;;;;;;10.40;9.60;;;;;;;;5070912;28;29075;-57
2023/06/05 04:03:04;;;;;;;;;9.25;7.25;;;;;;;;5070616;28;29302;-55
2023/06/05 04:05:29;;;;;;;;;8.00;7.00;;;;;;;;5069788;28;29321;-55
2023/06/05 04:07:55;;;;;;;;;8.25;8.25;;;;;;;;5069694;28;29549;-55
2023/06/05 04:10:21;;;;;;;;;7.80;6.20;;;;;;;;5071114;28;30927;-57
2023/06/05 04:12:46;;;;;;;;;8.00;8.00;;;;;;;;5070687;28;29399;-57
2023/06/05 04:15:12;;;;;;;;;12.00;10.00;;;;;;;;5070628;28;28931;-57
2023/06/05 04:17:37;;;;;;;;;8.50;7.00;;;;;;;;5070932;28;29939;-60
2023/06/05 04:20:04;;;;;;;;;9.00;9.00;;;;;;;;5070351;28;29363;-55
2023/06/05 04:22:29;;;;;;;;;8.00;7.40;;;;;;;;5069156;28;30458;-59
2023/06/05 04:24:54;;;;;;;;;8.00;8.00;;;;;;;;5070442;28;29485;-54
2023/06/05 04:27:20;;;;;;;;;9.00;9.00;;;;;;;;5069188;28;29287;-55
2023/06/05 04:29:45;;;;;;;;;9.00;8.50;;;;;;;;5069936;28;29978;-55
2023/06/05 04:32:10;;;;;;;;;9.25;8.00;;;;;;;;5068963;28;30064;-56
2023/06/05 04:34:36;;;;;;;;;9.75;9.75;;;;;;;;5070179;28;29542;-55
2023/06/05 04:37:03;;;;;;;;;11.00;10.00;;;;;;;;5069071;28;29221;-56
2023/06/05 04:39:28;;;;;;;;;11.60;11.20;;;;;;;;5070160;28;29916;-56
2023/06/05 04:41:54;;;;;;;;;9.00;9.00;;;;;;;;5069950;28;29192;-55
2023/06/05 04:44:20;;;;;;;;;9.25;7.75;;;;;;;;5070032;28;29532;-57
2023/06/05 04:46:45;;;;;;;;;11.75;11.25;;;;;;;;5069802;28;29516;-56
2023/06/05 04:49:11;;;;;;;;;11.00;9.00;;;;;;;;5069899;28;30189;-55
2023/06/05 04:51:36;;;;;;;;;12.25;9.25;;;;;;;;5069863;28;29583;-54
2023/06/05 04:54:02;;;;;;;;;7.75;6.75;;;;;;;;5068655;28;29493;-56
2023/06/05 04:56:28;;;;;;;;;9.75;9.75;;;;;;;;5070013;28;29521;-57
2023/06/05 04:58:53;;;;;;;;;11.50;10.25;;;;;;;;5069614;28;30373;-55
2023/06/05 05:01:19;;;;;;;;;9.50;8.00;;;;;;;;5070043;28;29705;-56
2023/06/05 05:03:46;;;;;;;;;12.00;10.40;;;;;;;;5069657;28;29264;-56
2023/06/05 05:06:14;;;;;;;;;11.80;9.40;;;;;;;;5070058;28;29360;-54
2023/06/05 05:08:40;;;;;;;;;13.80;12.40;;;;;;;;5069546;28;30104;-56
2023/06/05 05:11:05;;;;;;;;;12.25;10.50;;;;;;;;5069492;28;29278;-56
2023/06/05 05:13:30;;;;;;;;;14.00;11.75;;;;;;;;5069558;28;29618;-56
2023/06/05 05:15:56;;;;;;;;;14.25;12.00;;;;;;;;5069624;28;29136;-56
2023/06/05 05:18:21;;;;;;;;;13.50;11.75;;;;;;;;5069747;28;29492;-56
2023/06/05 05:20:47;;;;;;;;;8.50;8.00;;;;;;;;5069406;28;29422;-56
2023/06/05 05:23:13;;;;;;;;;10.75;9.00;;;;;;;;5069567;28;29267;-55
2023/06/05 05:25:38;;;;;;;;;11.60;10.80;;;;;;;;5069753;28;29747;-55
2023/06/05 05:28:03;;;;;;;;;11.50;11.50;;;;;;;;5067546;28;30987;-55
2023/06/05 05:30:30;;;;;;;;;16.50;12.25;;;;;;;;5069462;28;29385;-54
2023/06/05 05:32:56;;;;;;;;;10.80;10.20;;;;;;;;5069622;28;29587;-55
2023/06/05 05:35:22;;;;;;;;;12.40;10.20;;;;;;;;5069237;28;29471;-56
2023/06/05 05:37:47;;;;;;;;;15.25;12.50;;;;;;;;5069466;28;30230;-56
2023/06/05 05:40:12;;;;;;;;;12.00;10.00;;;;;;;;5069380;28;29987;-57
2023/06/05 05:42:37;;;;;;;;;13.50;11.25;;;;;;;;5069364;28;29624;-56
2023/06/05 05:45:03;;;;;;;;;11.00;10.50;;;;;;;;5069186;28;29680;-56
2023/06/05 05:47:28;;;;;;;;;13.50;11.25;;;;;;;;5069435;28;29255;-55
2023/06/05 05:49:53;;;;;;;;;10.50;10.00;;;;;;;;5068014;28;29330;-53
2023/06/05 05:52:20;;;;;;;;;12.25;12.00;;;;;;;;5068382;28;29441;-54
2023/06/05 05:54:45;;;;;;;;;13.80;13.60;;;;;;;;5067661;28;29287;-54
2023/06/05 05:57:11;;;;;;;;;10.25;9.50;;;;;;;;5069228;28;29320;-56
2023/06/05 05:59:36;;;;;;;;;11.25;11.25;;;;;;;;5067483;28;29423;-53
2023/06/05 06:02:08;;;;;;;;;12.25;12.25;;;;;;;;5051167;28;30013;-57
2023/06/05 06:04:34;;;;;;;;;12.60;11.40;;;;;;;;5069166;28;29495;-58
2023/06/05 06:07:00;;;;;;;;;15.00;12.00;;;;;;;;5068851;28;29588;-56
2023/06/05 06:09:26;;;;;;;;;11.60;10.40;;;;;;;;5068442;28;29255;-57
2023/06/05 06:11:55;;;;;;;;;17.75;15.00;;;;;;;;5051089;28;29591;-55
2023/06/05 06:14:20;;;;;;;;;11.40;10.60;;;;;;;;5068781;28;29625;-57
2023/06/05 06:16:46;;;;;;;;;14.25;11.50;;;;;;;;5067056;28;30035;-57
2023/06/05 06:19:14;;;;;;;;;14.00;13.25;;;;;;;;5068761;28;29669;-58
2023/06/05 06:21:40;;;;;;;;;14.40;13.00;;;;;;;;5068490;28;30216;-54
2023/06/05 06:24:05;;;;;;;;;11.80;10.80;;;;;;;;5068599;28;29475;-56
2023/06/05 06:26:31;;;;;;;;;11.50;11.00;;;;;;;;5068352;28;30766;-57
2023/06/05 06:28:57;;;;;;;;;15.75;13.75;;;;;;;;5032974;28;29930;-56
2023/06/05 06:31:22;;;;;;;;;10.60;9.40;;;;;;;;5068653;28;29115;-56
2023/06/05 06:33:48;;;;;;;;;13.25;12.00;;;;;;;;5068535;28;29019;-55
2023/06/05 06:36:13;;;;;;;;;15.00;13.25;;;;;;;;5068628;28;30583;-57
2023/06/05 06:38:38;;;;;;;;;14.25;14.25;;;;;;;;5068263;28;29225;-58
2023/06/05 06:41:04;;;;;;;;;12.25;12.25;;;;;;;;5068182;28;29432;-56
2023/06/05 06:43:29;;;;;;;;;13.00;12.25;;;;;;;;5068812;28;29042;-58
2023/06/05 06:45:55;;;;;;;;;14.25;11.75;;;;;;;;5067227;28;29639;-58
2023/06/05 06:48:20;;;;;;;;;11.75;10.50;;;;;;;;5068603;28;29499;-57
2023/06/05 06:50:46;;;;;;;;;11.50;11.50;;;;;;;;5068245;28;29580;-57
2023/06/05 06:53:11;;;;;;;;;12.00;10.00;;;;;;;;5068549;28;29627;-57
2023/06/05 06:55:37;;;;;;;;;15.50;11.75;;;;;;;;5068217;28;29194;-57
2023/06/05 06:58:03;;;;;;;;;15.20;14.20;;;;;;;;5068093;28;29521;-58
2023/06/05 07:00:28;;;;;;;;;18.25;15.50;;;;;;;;5068499;28;29176;-58
2023/06/05 07:02:53;;;;;;;;;12.50;12.50;;;;;;;;5067090;28;29785;-59
2023/06/05 07:05:19;;;;;;;;;12.00;12.00;;;;;;;;5070328;28;29405;-57
2023/06/05 07:07:45;;;;;;;;;12.25;9.00;;;;;;;;5071917;28;29718;-57
2023/06/05 07:10:10;;;;;;;;;11.00;10.75;;;;;;;;5071404;28;29324;-57
2023/06/05 07:12:36;;;;;;;;;16.00;13.50;;;;;;;;5071917;28;29422;-57
2023/06/05 07:15:02;;;;;;;;;13.25;13.00;;;;;;;;5070171;28;30337;-58
2023/06/05 07:17:29;;;;;;;;;14.00;13.00;;;;;;;;5071808;28;29516;-58
2023/06/05 07:19:55;;;;;;;;;17.00;13.60;;;;;;;;5070306;28;29488;-59
2023/06/05 07:22:20;;;;;;;;;18.50;16.00;;;;;;;;5071567;28;29385;-57
2023/06/05 07:24:46;;;;;;;;;14.25;13.00;;;;;;;;5071141;28;29986;-57
2023/06/05 07:27:11;;;;;;;;;11.75;11.50;;;;;;;;5071343;28;29182;-56
2023/06/05 07:29:37;;;;;;;;;15.50;13.25;;;;;;;;5071440;28;29423;-58
2023/06/05 07:32:06;;;;;;;;;15.00;14.75;;;;;;;;5071690;28;29386;-57
2023/06/05 07:34:31;;;;;;;;;14.00;14.00;;;;;;;;5069810;28;30675;-58
2023/06/05 07:36:56;;;;;;;;;14.75;11.50;;;;;;;;5070241;28;29825;-53
2023/06/05 07:39:22;;;;;;;;;13.00;13.00;;;;;;;;5070846;28;29001;-59
2023/06/05 07:41:47;;;;;;;;;10.00;9.25;;;;;;;;5048048;28;29352;-56
2023/06/05 07:44:13;;;;;;;;;12.75;11.25;;;;;;;;5071534;28;29384;-57
2023/06/05 07:46:42;;;;;;;;;12.50;10.75;;;;;;;;5071102;28;28782;-58
2023/06/05 07:49:08;;;;;;;;;12.20;12.00;;;;;;;;5070810;28;29493;-58
2023/06/05 07:51:35;;;;;;;;;16.80;12.80;;;;;;;;5071427;28;29497;-57
2023/06/05 07:54:02;;;;;;;;;12.00;11.20;;;;;;;;5071089;28;29369;-57
2023/06/05 07:56:28;;;;;;;;;13.80;12.80;;;;;;;;5086263;28;29134;-55
2023/06/05 07:58:53;;;;;;;;;14.20;13.00;;;;;;;;5068499;28;29281;-56
2023/06/05 08:01:20;;;;;;;;;9.75;9.75;;;;;;;;5058335;28;29208;-59
2023/06/05 08:03:46;;;;;;;;;15.40;11.20;;;;;;;;5050667;28;30099;-57
2023/06/05 08:06:11;;;;;;;;;10.75;9.75;;;;;;;;5049373;28;30478;-57
2023/06/05 08:08:36;;;;;;;;;15.25;13.50;;;;;;;;5051040;28;28679;-57
2023/06/05 08:11:02;;;;;;;;;13.00;10.25;;;;;;;;5050483;28;29196;-56
2023/06/05 08:13:27;;;;;;;;;12.75;12.75;;;;;;;;5050772;28;29564;-59
2023/06/05 08:15:52;;;;;;;;;11.50;11.50;;;;;;;;5050377;28;29570;-56
2023/06/05 08:18:17;;;;;;;;;15.50;11.50;;;;;;;;5050895;28;29639;-57
2023/06/05 08:20:43;;;;;;;;;13.00;12.50;;;;;;;;5050579;28;29434;-54
2023/06/05 08:23:08;;;;;;;;;15.25;12.25;;;;;;;;5049092;28;31273;-57
2023/06/05 08:25:33;;;;;;;;;11.00;9.75;;;;;;;;5050886;28;29316;-60
2023/06/05 08:27:59;;;;;;;;;10.25;10.25;;;;;;;;5070682;28;29440;-57
2023/06/05 08:30:24;;;;;;;;;8.00;7.50;;;;;;;;5070590;28;29334;-56
2023/06/05 08:32:49;;;;;;;;;14.00;12.00;;;;;;;;5070630;28;29653;-55
2023/06/05 08:35:14;;;;;;;;;16.50;12.00;;;;;;;;5070308;28;28783;-56
2023/06/05 08:37:40;;;;;;;;;12.00;11.00;;;;;;;;5086405;28;29437;-57
2023/06/05 08:40:10;;;;;;;;;14.25;10.75;;;;;;;;5070096;28;28958;-53
2023/06/05 08:42:35;;;;;;;;;10.80;10.80;;;;;;;;5053979;27;29478;-56
2023/06/05 08:45:00;;;;;;;;;11.75;10.50;;;;;;;;5070082;28;29428;-58
2023/06/05 08:47:28;;;;;;;;;10.50;10.50;;;;;;;;5070599;28;28883;-55
2023/06/05 08:49:53;;;;;;;;;13.20;10.00;;;;;;;;5068940;28;28941;-56
2023/06/05 08:52:19;;;;;;;;;9.50;9.50;;;;;;;;5069995;28;29115;-56
2023/06/05 08:54:45;;;;;;;;;12.40;10.20;;;;;;;;5069388;28;29137;-58
2023/06/05 08:57:10;;;;;;;;;11.00;9.00;;;;;;;;5051772;28;29338;-58
2023/06/05 08:59:36;;;;;;;;;10.00;9.50;;;;;;;;5061135;28;29414;-55
2023/06/05 09:02:01;;;;;;;;;7.25;6.25;;;;;;;;5083404;28;29862;-59
2023/06/05 09:04:29;;;;;;;;;10.00;9.00;;;;;;;;5066829;28;29737;-58
2023/06/05 09:06:58;;;;;;;;;13.60;10.80;;;;;;;;5083600;28;29144;-61
2023/06/05 09:09:25;;;;;;;;;12.60;11.20;;;;;;;;5067796;28;29743;-57
2023/06/05 09:12:03;;;;;;;;;16.20;12.00;;;;;;;;5067946;28;30158;-58
2023/06/05 09:14:30;;;;;;;;;14.00;13.00;;;;;;;;5067984;28;29723;-56
2023/06/05 09:16:56;;;;;;;;;10.20;9.60;;;;;;;;5065592;28;29263;-58
2023/06/05 09:19:25;;;;;;;;;11.00;10.00;;;;;;;;5068014;28;29335;-57
2023/06/05 09:21:54;;;;;;;;;10.20;10.20;;;;;;;;5066367;28;30531;-56
2023/06/05 09:24:21;;;;;;;;;8.80;8.80;;;;;;;;5066282;28;30026;-58
2023/06/05 09:26:49;;;;;;;;;12.00;11.40;;;;;;;;5067074;28;29762;-57
2023/06/05 09:29:24;;;;;;;;;7.60;7.00;;;;;;;;5066885;28;29302;-57
2023/06/05 09:31:50;;;;;;;;;10.40;9.00;;;;;;;;5067643;28;30536;-57
2023/06/05 09:34:41;;;;;;;;;11.50;11.50;;;;;;;;5067600;28;29630;-55
2023/06/05 09:37:07;;;;;;;;;8.60;8.20;;;;;;;;5064953;28;29305;-56
2023/06/05 09:39:33;;;;;;;;;9.60;8.80;;;;;;;;5057227;28;45909;-55
2023/06/05 09:41:59;;;;;;;;;12.00;9.00;;;;;;;;5051967;28;46509;-56
2023/06/05 09:44:25;;;;;;;;;10.75;8.00;;;;;;;;5034438;28;45858;-55
2023/06/05 09:46:54;;;;;;;;;7.75;7.00;;;;;;;;5052280;28;45307;-55
2023/06/05 09:49:20;;;;;;;;;9.20;7.40;;;;;;;;5053484;28;46074;-57
2023/06/05 09:51:46;;;;;;;;;13.00;11.80;;;;;;;;5053245;28;47283;-56
2023/06/05 09:54:12;;;;;;;;;11.80;10.80;;;;;;;;5051832;28;45380;-56
2023/06/05 09:56:37;;;;;;;;;11.00;9.75;;;;;;;;5053676;28;45431;-55
2023/06/05 09:59:02;;;;;;;;;8.75;8.75;;;;;;;;5052812;28;45555;-56
2023/06/05 10:01:28;;;;;;;;;13.50;10.75;;;;;;;;5052164;28;45420;-55
2023/06/05 10:03:57;;;;;;;;;8.75;8.75;;;;;;;;5053166;28;45424;-57
2023/06/05 10:06:23;;;;;;;;;8.20;8.20;;;;;;;;5051876;28;45283;-54
2023/06/05 10:08:49;;;;;;;;;8.60;8.00;;;;;;;;5050473;28;45637;-56
2023/06/05 10:11:16;;;;;;;;;8.40;8.40;;;;;;;;5033010;28;46281;-59
2023/06/05 10:13:41;;;;;;;;;10.60;10.60;;;;;;;;5033358;28;45525;-57
2023/06/05 10:16:06;;;;;;;;;11.50;11.50;;;;;;;;5015211;28;45484;-56
2023/06/05 10:18:32;;;;;;;;;13.00;10.00;;;;;;;;5028422;28;45680;-58
2023/06/05 10:20:57;;;;;;;;;11.00;10.00;;;;;;;;5052690;28;45431;-56
2023/06/05 10:23:23;;;;;;;;;8.25;8.25;;;;;;;;5068206;28;45404;-56
2023/06/05 10:25:48;;;;;;;;;9.50;8.00;;;;;;;;5053495;28;45843;-57
2023/06/05 10:28:19;;;;;;;;;9.25;9.25;;;;;;;;5047888;28;45326;-57
2023/06/05 10:31:08;;;;;;;;;10.20;8.40;;;;;;;;5033421;28;45520;-56
2023/06/05 10:33:52;;;;;;;;;8.40;8.40;;;;;;;;5030021;28;45380;-56
2023/06/05 10:36:40;;;;;;;;;8.80;7.80;;;;;;;;5053058;28;45438;-56
2023/06/05 10:39:06;;;;;;;;;6.80;6.80;;;;;;;;5055152;28;45364;-59
2023/06/05 10:41:31;;;;;;;;;7.60;7.00;;;;;;;;5054668;28;45799;-56
2023/06/05 10:43:57;;;;;;;;;9.00;9.00;;;;;;;;5055912;28;45245;-58
2023/06/05 10:46:37;;;;;;;;;8.25;8.25;;;;;;;;5006820;28;45938;-55
2023/06/05 10:49:07;;;;;;;;;9.20;7.40;;;;;;;;5071628;28;45422;-59
2023/06/05 10:51:33;;;;;;;;;8.40;8.40;;;;;;;;5056380;28;45324;-55
2023/06/05 10:53:59;;;;;;;;;8.20;7.40;;;;;;;;5054887;28;46055;-59
2023/06/05 10:56:55;;;;;;;;;7.00;7.00;;;;;;;;5055489;28;45416;-57
2023/06/05 10:59:21;;;;;;;;;9.60;9.60;;;;;;;;5053978;28;45790;-56
2023/06/05 11:02:08;;;;;;;;;10.20;9.20;;;;;;;;5055671;28;46742;-57
2023/06/05 11:04:43;;;;;;;;;7.00;7.00;;;;;;;;5055713;28;45863;-56
2023/06/05 11:07:21;;;;;;;;;8.00;7.20;;;;;;;;5054881;28;46734;-55
2023/06/05 11:10:01;;;;;;;;;9.40;9.40;;;;;;;;5055867;28;45783;-57
2023/06/05 11:12:47;;;;;;;;;7.40;7.40;;;;;;;;5055809;28;46221;-57
2023/06/05 11:15:12;;;;;;;;;8.00;8.00;;;;;;;;5045883;28;45485;-56
2023/06/05 11:17:39;;;;;;;;;7.50;6.25;;;;;;;;5047880;28;45366;-59
2023/06/05 11:20:10;;;;;;;;;8.00;6.80;;;;;;;;5028614;28;51250;-56
2023/06/05 11:22:54;;;;;;;;;9.80;7.20;;;;;;;;5036447;28;45693;-57
2023/06/05 11:25:29;;;;;;;;;8.20;8.20;;;;;;;;5052956;28;45406;-56
2023/06/05 11:28:05;;;;;;;;;9.20;9.20;;;;;;;;5053045;28;45794;-57
2023/06/05 11:30:43;;;;;;;;;8.00;7.80;;;;;;;;5053360;28;45473;-62
2023/06/05 11:33:08;;;;;;;;;8.40;8.00;;;;;;;;5055392;28;45897;-63
2023/06/05 11:35:34;;;;;;;;;8.75;8.75;;;;;;;;5055318;28;45405;-60
2023/06/05 11:38:09;;;;;;;;;8.50;7.50;;;;;;;;5052326;28;45307;-58
2023/06/05 11:40:35;;;;;;;;;8.20;6.80;;;;;;;;5054921;28;45537;-59
2023/06/05 11:43:04;;;;;;;;;9.50;8.50;;;;;;;;5054142;28;46058;-62
2023/06/05 11:45:29;;;;;;;;;10.60;8.00;;;;;;;;5052999;28;45536;-58
2023/06/05 11:48:03;;;;;;;;;7.25;5.25;;;;;;;;5052830;28;45558;-59
2023/06/05 11:50:30;;;;;;;;;7.80;7.80;;;;;;;;5040843;28;45736;-56
2023/06/05 11:53:03;;;;;;;;;7.80;7.80;;;;;;;;5054425;28;45439;-57
2023/06/05 11:55:42;;;;;;;;;9.20;8.40;;;;;;;;5069649;28;45337;-57
2023/06/05 11:58:08;;;;;;;;;8.60;7.00;;;;;;;;5053436;28;45473;-58
2023/06/05 12:00:34;;;;;;;;;8.40;8.40;;;;;;;;5054606;28;45522;-59
2023/06/05 12:02:59;;;;;;;;;8.00;8.00;;;;;;;;5045867;28;45342;-60
2023/06/05 12:05:24;;;;;;;;;9.00;7.00;;;;;;;;5034345;28;45369;-55
2023/06/05 12:07:50;;;;;;;;;6.75;6.75;;;;;;;;5034345;28;45535;-55
2023/06/05 12:10:16;;;;;;;;;10.00;9.20;;;;;;;;5034814;28;45372;-58
2023/06/05 12:12:51;;;;;;;;;11.50;8.50;;;;;;;;5033877;28;47274;-57
2023/06/05 12:15:17;;;;;;;;;9.40;9.00;;;;;;;;5041404;28;45460;-52
2023/06/05 12:17:51;;;;;;;;;8.50;7.75;;;;;;;;5021767;28;45750;-54
2023/06/05 12:20:16;;;;;;;;;7.80;6.80;;;;;;;;5027759;28;45372;-58
2023/06/05 12:22:42;;;;;;;;;9.00;9.00;;;;;;;;5025358;28;46904;-56
2023/06/05 12:25:19;;;;;;;;;7.25;7.25;;;;;;;;5029607;28;45687;-58
2023/06/05 12:27:45;;;;;;;;;8.80;8.80;;;;;;;;5036844;28;45367;-55
2023/06/05 12:30:19;;;;;;;;;9.00;9.00;;;;;;;;5041211;28;45572;-60
2023/06/05 12:32:45;;;;;;;;;10.00;8.80;;;;;;;;5053497;28;45502;-60
2023/06/05 12:35:19;;;;;;;;;7.25;7.00;;;;;;;;5053610;28;45473;-56
2023/06/05 12:37:47;;;;;;;;;11.20;8.60;;;;;;;;5036884;28;45342;-58
2023/06/05 12:40:13;;;;;;;;;8.40;7.60;;;;;;;;5047925;28;45700;-58
2023/06/05 12:42:40;;;;;;;;;9.00;7.60;;;;;;;;5049512;28;46580;-57
2023/06/05 12:45:06;;;;;;;;;10.60;7.60;;;;;;;;5052082;28;45500;-58
2023/06/05 12:47:31;;;;;;;;;6.25;6.25;;;;;;;;5068079;28;45483;-58
2023/06/05 12:49:58;;;;;;;;;7.00;6.00;;;;;;;;5052511;28;45986;-58
2023/06/05 12:52:25;;;;;;;;;8.00;7.00;;;;;;;;5051002;28;46369;-59
2023/06/05 12:54:51;;;;;;;;;6.20;6.20;;;;;;;;5051470;28;45494;-56
2023/06/05 12:57:20;;;;;;;;;10.25;9.50;;;;;;;;5041444;28;46015;-60
2023/06/05 12:59:45;;;;;;;;;9.20;7.60;;;;;;;;5018019;28;45494;-58
2023/06/05 13:02:11;;;;;;;;;8.50;8.00;;;;;;;;5047783;28;45566;-60
2023/06/05 13:04:36;;;;;;;;;10.75;9.25;;;;;;;;5049765;28;45340;-59
2023/06/05 13:07:02;;;;;;;;;7.75;7.00;;;;;;;;5050951;28;45402;-59
2023/06/05 13:09:28;;;;;;;;;9.20;9.00;;;;;;;;5066415;28;45468;-54
2023/06/05 13:11:54;;;;;;;;;8.50;7.50;;;;;;;;5050060;28;46167;-61
2023/06/05 13:14:19;;;;;;;;;8.00;8.00;;;;;;;;5047427;28;45558;-55
2023/06/05 13:16:44;;;;;;;;;6.00;6.00;;;;;;;;5049956;28;45602;-60
2023/06/05 13:19:10;;;;;;;;;6.75;6.75;;;;;;;;5040628;28;45670;-57
2023/06/05 13:21:35;;;;;;;;;7.00;7.00;;;;;;;;5050565;28;45438;-59
2023/06/05 13:24:00;;;;;;;;;5.00;5.00;;;;;;;;5049965;28;45447;-55
2023/06/05 13:26:26;;;;;;;;;8.25;7.00;;;;;;;;5050694;28;45461;-56
2023/06/05 13:28:51;;;;;;;;;6.00;6.00;;;;;;;;5049082;28;45526;-60
2023/06/05 13:31:17;;;;;;;;;6.00;6.00;;;;;;;;5049344;28;46080;-62
2023/06/05 13:33:42;;;;;;;;;6.50;6.50;;;;;;;;5048310;28;45352;-59
2023/06/05 13:36:10;;;;;;;;;9.00;8.00;;;;;;;;5049056;28;46115;-59
2023/06/05 13:38:37;;;;;;;;;6.00;6.00;;;;;;;;5049323;28;45991;-59
2023/06/05 13:41:03;;;;;;;;;7.80;6.60;;;;;;;;5039091;28;47060;-60
2023/06/05 13:43:28;;;;;;;;;4.25;4.25;;;;;;;;5049651;28;45848;-60
2023/06/05 13:45:53;;;;;;;;;5.50;3.00;;;;;;;;5048565;28;45651;-54
2023/06/05 13:48:19;;;;;;;;;5.75;5.75;;;;;;;;5034716;28;45313;-59
2023/06/05 13:50:44;;;;;;;;;7.25;6.25;;;;;;;;5030021;28;46638;-59
2023/06/05 13:53:10;;;;;;;;;7.25;6.25;;;;;;;;5028167;28;45817;-55
2023/06/05 13:55:36;;;;;;;;;5.75;5.25;;;;;;;;5028554;28;45404;-58
2023/06/05 13:58:02;;;;;;;;;7.20;6.80;;;;;;;;5030460;28;45443;-58
2023/06/05 14:00:28;;;;;;;;;6.40;6.40;;;;;;;;5021165;28;46492;-59
2023/06/05 14:02:53;;;;;;;;;6.00;6.00;;;;;;;;5030279;28;45821;-61
2023/06/05 14:05:18;;;;;;;;;4.00;4.00;;;;;;;;5033976;28;45983;-59
2023/06/05 14:07:44;;;;;;;;;9.00;7.00;;;;;;;;5032241;28;45864;-61
2023/06/05 14:10:09;;;;;;;;;8.25;8.25;;;;;;;;5050267;28;46230;-60
2023/06/05 14:12:34;;;;;;;;;7.00;7.00;;;;;;;;5049895;28;45777;-61
2023/06/05 14:15:00;;;;;;;;;8.75;7.25;;;;;;;;5048238;28;45554;-59
2023/06/05 14:17:25;;;;;;;;;7.00;7.00;;;;;;;;5052682;28;45310;-59
2023/06/05 14:19:50;;;;;;;;;7.25;6.25;;;;;;;;5041162;28;45954;-60
2023/06/05 14:22:15;;;;;;;;;6.75;6.75;;;;;;;;5053656;28;45321;-60
2023/06/05 14:24:41;;;;;;;;;7.00;5.75;;;;;;;;5057211;28;45625;-60
2023/06/05 14:27:09;;;;;;;;;7.40;7.20;;;;;;;;5068110;28;29894;-60
2023/06/05 14:29:35;;;;;;;;;8.40;6.60;;;;;;;;5066617;28;29454;-58
2023/06/05 14:32:00;;;;;;;;;5.20;5.20;;;;;;;;5066342;28;29957;-60